Time;durP1;ratioP1;P1;durP2;ratioP2;P2;SDS_P1;SDS_P2;PMS_P1;PMS_P2;Temp;Humidity;BMP_temperature;BMP_pressure;BME280_temperature;BME280_humidity;BME280_pressure;Samples;Min_cycle;Max_cycle;Signal;HPM_P1;HPM_P2
2022/12/29 00:00:00;;;;;;;1.85;1.20;;;;;;;;;;5076758;28;20036;-80
2022/12/29 00:02:25;;;;;;;5.07;1.45;;;;;;;;;;5077670;28;20056;-81
2022/12/29 00:04:50;;;;;;;2.33;1.27;;;;;;;;;;5076648;28;20040;-80
2022/12/29 00:07:17;;;;;;;2.38;0.93;;;;;;;;;;5076916;28;20107;-80
2022/12/29 00:09:42;;;;;;;2.80;1.40;;;;;;;;;;5077449;28;20473;-82
2022/12/29 00:12:07;;;;;;;3.67;1.20;;;;;;;;;;5058523;28;20020;-79
2022/12/29 00:17:16;;;;;;;1.52;1.10;;;;;;;;;;5076043;28;20252;-81
2022/12/29 00:36:27;;;;;;;1.02;0.82;;;;;;;;;;5076475;28;20542;-80
2022/12/29 00:44:27;;;;;;;4.30;0.85;;;;;;;;;;5076329;28;20031;-81
2022/12/29 00:46:53;;;;;;;3.00;0.93;;;;;;;;;;5076028;28;20028;-83
2022/12/29 00:49:30;;;;;;;1.52;0.88;;;;;;;;;;5076834;28;20310;-82
2022/12/29 00:52:00;;;;;;;1.20;0.70;;;;;;;;;;5076204;28;20073;-81
2022/12/29 00:54:25;;;;;;;2.42;0.70;;;;;;;;;;5076197;28;20016;-81
2022/12/29 00:56:52;;;;;;;2.40;0.73;;;;;;;;;;5058645;28;20028;-80
2022/12/29 00:59:18;;;;;;;1.27;0.80;;;;;;;;;;5076735;28;20044;-79
2022/12/29 01:01:44;;;;;;;4.05;1.48;;;;;;;;;;5076108;28;20031;-79
2022/12/29 01:04:10;;;;;;;1.33;0.93;;;;;;;;;;5076001;28;20469;-81
2022/12/29 01:06:38;;;;;;;2.08;0.90;;;;;;;;;;5059272;28;20027;-81
2022/12/29 01:11:48;;;;;;;1.90;0.95;;;;;;;;;;5079042;28;20090;-80
2022/12/29 01:14:13;;;;;;;1.48;0.80;;;;;;;;;;5061231;28;20477;-80
2022/12/29 01:16:38;;;;;;;2.55;1.10;;;;;;;;;;5060849;28;20116;-80
2022/12/29 01:19:04;;;;;;;1.90;1.13;;;;;;;;;;5078951;28;20025;-81
2022/12/29 01:21:29;;;;;;;1.20;0.90;;;;;;;;;;5079515;28;20020;-80
2022/12/29 01:23:54;;;;;;;2.45;1.10;;;;;;;;;;5079175;28;20047;-80
2022/12/29 01:26:20;;;;;;;2.00;1.20;;;;;;;;;;5061558;28;20421;-81
2022/12/29 01:28:45;;;;;;;1.88;1.20;;;;;;;;;;5078904;28;20109;-81
2022/12/29 01:31:13;;;;;;;1.70;1.10;;;;;;;;;;5078867;28;20107;-80
2022/12/29 01:33:39;;;;;;;2.85;1.27;;;;;;;;;;5060366;28;20044;-81
2022/12/29 01:36:07;;;;;;;2.75;1.30;;;;;;;;;;5060962;28;20021;-80
2022/12/29 01:38:34;;;;;;;5.07;1.27;;;;;;;;;;5079026;28;20087;-81
2022/12/29 01:40:59;;;;;;;1.83;1.20;;;;;;;;;;5079441;28;20047;-80
2022/12/29 01:43:51;;;;;;;1.73;1.10;;;;;;;;;;5078837;28;20025;-81
2022/12/29 01:46:42;;;;;;;4.15;1.40;;;;;;;;;;5079403;28;20032;-80
2022/12/29 01:49:07;;;;;;;2.10;1.20;;;;;;;;;;5061116;28;20525;-81
2022/12/29 01:51:40;;;;;;;2.50;1.10;;;;;;;;;;5079114;28;20056;-81
2022/12/29 01:54:11;;;;;;;2.60;1.38;;;;;;;;;;5078630;28;20025;-80
2022/12/29 01:56:36;;;;;;;1.75;1.23;;;;;;;;;;5078917;28;20026;-80
2022/12/29 01:59:08;;;;;;;2.50;1.40;;;;;;;;;;5078823;28;20384;-80
2022/12/29 02:01:34;;;;;;;3.83;1.08;;;;;;;;;;5079115;28;20028;-80
2022/12/29 02:03:59;;;;;;;1.77;1.20;;;;;;;;;;5078730;28;20035;-81
2022/12/29 02:06:40;;;;;;;1.58;1.20;;;;;;;;;;5078850;28;20028;-80
2022/12/29 02:09:05;;;;;;;2.10;1.27;;;;;;;;;;5079222;28;20049;-81
2022/12/29 02:11:31;;;;;;;2.77;1.40;;;;;;;;;;5078945;28;20111;-82
2022/12/29 02:13:57;;;;;;;3.05;1.40;;;;;;;;;;5078392;28;20338;-82
2022/12/29 02:16:37;;;;;;;3.97;1.30;;;;;;;;;;5078826;28;20016;-81
2022/12/29 02:19:27;;;;;;;2.63;1.10;;;;;;;;;;5059613;28;20025;-82
2022/12/29 02:22:12;;;;;;;2.47;1.25;;;;;;;;;;5078777;28;20153;-80
2022/12/29 02:25:11;;;;;;;2.75;1.40;;;;;;;;;;5078141;28;20539;-82
2022/12/29 02:28:08;;;;;;;2.17;1.20;;;;;;;;;;5078774;28;20093;-82
2022/12/29 02:30:52;;;;;;;2.55;1.10;;;;;;;;;;5078309;28;20029;-81
2022/12/29 02:33:40;;;;;;;4.22;1.00;;;;;;;;;;5078863;28;20097;-81
2022/12/29 02:36:07;;;;;;;1.60;1.17;;;;;;;;;;5077274;28;20527;-81
2022/12/29 02:38:48;;;;;;;3.45;1.25;;;;;;;;;;5078353;28;20059;-80
2022/12/29 02:41:33;;;;;;;1.65;1.10;;;;;;;;;;5060554;28;20024;-81
2022/12/29 02:44:07;;;;;;;2.58;1.45;;;;;;;;;;5078366;28;20029;-80
2022/12/29 02:46:41;;;;;;;2.00;1.27;;;;;;;;;;5078073;28;20036;-80
2022/12/29 02:49:18;;;;;;;3.35;1.30;;;;;;;;;;5078629;28;20020;-81
2022/12/29 02:51:52;;;;;;;4.03;1.20;;;;;;;;;;5078080;28;20086;-81
2022/12/29 02:57:29;;;;;;;1.90;1.20;;;;;;;;;;5077747;28;19916;-80
2022/12/29 03:00:03;;;;;;;1.00;0.90;;;;;;;;;;5077061;28;20032;-81
2022/12/29 03:03:21;;;;;;;3.97;1.38;;;;;;;;;;5077741;28;20039;-81
2022/12/29 03:06:01;;;;;;;3.45;1.30;;;;;;;;;;4999430;28;20038;-81
2022/12/29 03:08:35;;;;;;;2.17;1.08;;;;;;;;;;5000249;28;20037;-80
2022/12/29 03:11:01;;;;;;;;;;;;;;;;;;5060973;28;20040;-80
2022/12/29 03:16:41;;;;;;;1.50;1.05;;;;;;;;;;5077907;28;20512;-81
2022/12/29 03:19:18;;;;;;;1.70;1.20;;;;;;;;;;5077798;28;20024;-81
2022/12/29 03:24:35;;;;;;;3.60;1.55;;;;;;;;;;5077703;28;20063;-80
2022/12/29 03:27:03;;;;;;;2.13;1.10;;;;;;;;;;5077766;28;20021;-80
2022/12/29 03:29:32;;;;;;;2.30;1.20;;;;;;;;;;5058848;28;20027;-81
2022/12/29 03:31:59;;;;;;;3.08;1.17;;;;;;;;;;5059125;28;20024;-80
2022/12/29 03:34:25;;;;;;;1.70;1.10;;;;;;;;;;5076742;28;20051;-81
2022/12/29 03:36:54;;;;;;;3.58;1.20;;;;;;;;;;5077222;28;20469;-81
2022/12/29 03:39:23;;;;;;;2.28;1.20;;;;;;;;;;5077156;28;20033;-80
2022/12/29 03:41:51;;;;;;;1.50;1.08;;;;;;;;;;5077157;28;20044;-81
2022/12/29 03:44:16;;;;;;;1.55;1.10;;;;;;;;;;5076810;28;20020;-80
2022/12/29 03:46:41;;;;;;;3.25;1.50;;;;;;;;;;5059085;28;20086;-82
2022/12/29 03:49:06;;;;;;;1.92;1.10;;;;;;;;;;5077192;28;20031;-81
2022/12/29 03:51:32;;;;;;;1.55;1.10;;;;;;;;;;5077339;28;20028;-80
2022/12/29 03:53:57;;;;;;;2.00;1.13;;;;;;;;;;5076984;28;20036;-81
2022/12/29 03:56:22;;;;;;;1.85;1.08;;;;;;;;;;5077653;28;20405;-81
2022/12/29 03:58:47;;;;;;;2.47;1.30;;;;;;;;;;5077114;28;20058;-79
2022/12/29 04:01:13;;;;;;;2.10;1.00;;;;;;;;;;5076839;28;20257;-81
2022/12/29 04:03:38;;;;;;;2.72;1.20;;;;;;;;;;5077063;28;20036;-79
2022/12/29 04:06:04;;;;;;;2.25;1.10;;;;;;;;;;5076653;28;20028;-80
2022/12/29 04:08:29;;;;;;;4.05;1.08;;;;;;;;;;5058788;28;20029;-81
2022/12/29 04:10:54;;;;;;;1.83;1.20;;;;;;;;;;5076735;28;20066;-82
2022/12/29 04:13:19;;;;;;;2.58;1.40;;;;;;;;;;5076705;28;20052;-79
2022/12/29 04:15:45;;;;;;;1.47;1.20;;;;;;;;;;5077259;28;20016;-80
2022/12/29 04:18:11;;;;;;;2.10;1.38;;;;;;;;;;5058626;28;20257;-81
2022/12/29 04:23:20;;;;;;;1.58;1.05;;;;;;;;;;5076891;28;20086;-80
2022/12/29 04:25:49;;;;;;;1.85;1.10;;;;;;;;;;5077411;28;20029;-81
2022/12/29 04:28:16;;;;;;;2.63;1.10;;;;;;;;;;5076269;28;20028;-80
2022/12/29 04:30:42;;;;;;;2.08;0.98;;;;;;;;;;5058575;28;20024;-80
2022/12/29 04:33:08;;;;;;;5.60;1.20;;;;;;;;;;5076420;28;20111;-81
2022/12/29 04:35:33;;;;;;;2.20;1.20;;;;;;;;;;5076302;28;20081;-80
2022/12/29 04:37:58;;;;;;;1.70;1.10;;;;;;;;;;5076485;28;20258;-79
2022/12/29 04:40:24;;;;;;;1.90;1.20;;;;;;;;;;5076284;28;20028;-81
2022/12/29 04:42:50;;;;;;;3.78;0.90;;;;;;;;;;5062137;28;20027;-79
2022/12/29 04:45:15;;;;;;;2.88;1.25;;;;;;;;;;5079679;28;20363;-80
2022/12/29 04:47:40;;;;;;;5.03;1.08;;;;;;;;;;5080121;28;20025;-80
2022/12/29 04:50:07;;;;;;;1.90;1.05;;;;;;;;;;5080306;28;20029;-80
2022/12/29 04:52:32;;;;;;;2.72;1.13;;;;;;;;;;5062381;28;20028;-80
2022/12/29 04:54:57;;;;;;;3.08;1.20;;;;;;;;;;5062368;28;20062;-80
2022/12/29 04:57:23;;;;;;;2.00;1.10;;;;;;;;;;5080348;28;20032;-79
2022/12/29 04:59:48;;;;;;;2.03;1.10;;;;;;;;;;5080342;28;20035;-81
2022/12/29 05:02:13;;;;;;;2.67;1.20;;;;;;;;;;5080381;28;20385;-81
2022/12/29 05:04:38;;;;;;;2.28;1.02;;;;;;;;;;5062052;28;20711;-81
2022/12/29 05:07:03;;;;;;;1.87;1.03;;;;;;;;;;5080399;28;20017;-81
2022/12/29 05:09:29;;;;;;;1.63;0.90;;;;;;;;;;5080336;28;20267;-80
2022/12/29 05:11:55;;;;;;;1.52;1.02;;;;;;;;;;5079835;28;20340;-81
2022/12/29 05:14:20;;;;;;;1.42;0.90;;;;;;;;;;5080050;28;20466;-83
2022/12/29 05:16:45;;;;;;;2.00;1.13;;;;;;;;;;5080123;28;20024;-81
2022/12/29 05:19:10;;;;;;;2.65;0.98;;;;;;;;;;5080032;28;20029;-81
2022/12/29 05:21:36;;;;;;;2.00;1.27;;;;;;;;;;5061954;28;20367;-81
2022/12/29 05:24:01;;;;;;;3.00;0.90;;;;;;;;;;5079730;28;20672;-81
2022/12/29 05:26:26;;;;;;;2.47;1.10;;;;;;;;;;5080431;28;20024;-81
2022/12/29 05:28:51;;;;;;;3.45;1.00;;;;;;;;;;5079592;28;20275;-81
2022/12/29 05:31:17;;;;;;;3.08;0.93;;;;;;;;;;5080294;28;20091;-82
2022/12/29 05:33:42;;;;;;;1.10;1.00;;;;;;;;;;5079509;28;20029;-81
2022/12/29 05:36:09;;;;;;;1.20;0.90;;;;;;;;;;5079367;28;20380;-81
2022/12/29 05:38:34;;;;;;;2.92;1.00;;;;;;;;;;5061622;28;20260;-81
2022/12/29 05:41:00;;;;;;;1.77;1.02;;;;;;;;;;5079428;28;20025;-81
2022/12/29 05:43:25;;;;;;;2.83;1.02;;;;;;;;;;5061337;28;20027;-81
2022/12/29 05:45:52;;;;;;;4.22;1.05;;;;;;;;;;5079125;28;20048;-80
2022/12/29 05:48:18;;;;;;;2.00;1.00;;;;;;;;;;5079036;28;20020;-80
2022/12/29 05:50:47;;;;;;;2.50;1.10;;;;;;;;;;5061379;28;20070;-80
2022/12/29 05:53:13;;;;;;;2.58;1.05;;;;;;;;;;5079244;28;20785;-81
2022/12/29 05:55:38;;;;;;;3.50;0.90;;;;;;;;;;5061019;28;20103;-80
2022/12/29 05:58:03;;;;;;;1.38;0.98;;;;;;;;;;5079408;28;20024;-81
2022/12/29 06:00:28;;;;;;;2.63;1.00;;;;;;;;;;5079532;28;20024;-81
2022/12/29 06:02:54;;;;;;;2.80;1.00;;;;;;;;;;5079442;28;20020;-81
2022/12/29 06:05:19;;;;;;;2.17;1.08;;;;;;;;;;5078593;28;20032;-81
2022/12/29 06:07:45;;;;;;;1.70;1.13;;;;;;;;;;5078940;28;20491;-81
2022/12/29 06:10:10;;;;;;;2.58;1.08;;;;;;;;;;5078758;28;20664;-80
2022/12/29 06:12:35;;;;;;;2.03;1.05;;;;;;;;;;5078538;28;20024;-81
2022/12/29 06:15:00;;;;;;;2.73;1.10;;;;;;;;;;5078854;28;20048;-79
2022/12/29 06:17:26;;;;;;;1.77;0.98;;;;;;;;;;5078864;28;20257;-81
2022/12/29 06:19:51;;;;;;;2.43;1.20;;;;;;;;;;5061147;28;20401;-81
2022/12/29 06:22:16;;;;;;;2.15;1.05;;;;;;;;;;5079090;28;20806;-80
2022/12/29 06:24:41;;;;;;;1.43;1.10;;;;;;;;;;5079263;28;20062;-81
2022/12/29 06:27:07;;;;;;;1.17;0.90;;;;;;;;;;5061853;28;20257;-81
2022/12/29 06:29:32;;;;;;;2.70;1.13;;;;;;;;;;5059991;28;20024;-79
2022/12/29 06:31:58;;;;;;;3.55;0.90;;;;;;;;;;5078361;28;20028;-82
2022/12/29 06:34:26;;;;;;;1.77;1.15;;;;;;;;;;5060291;28;20396;-81
2022/12/29 06:36:51;;;;;;;2.05;1.10;;;;;;;;;;5078738;28;20054;-81
2022/12/29 06:39:16;;;;;;;1.60;1.02;;;;;;;;;;5060398;28;20024;-81
2022/12/29 06:41:42;;;;;;;1.93;1.00;;;;;;;;;;5078128;28;20024;-81
2022/12/29 06:44:07;;;;;;;2.03;1.20;;;;;;;;;;5078120;28;20276;-80
2022/12/29 06:46:32;;;;;;;3.10;1.20;;;;;;;;;;5078077;28;20273;-79
2022/12/29 06:48:58;;;;;;;2.45;1.40;;;;;;;;;;5060074;28;20393;-80
2022/12/29 06:51:23;;;;;;;1.88;1.33;;;;;;;;;;5078325;28;20075;-81
2022/12/29 06:53:48;;;;;;;3.40;1.70;;;;;;;;;;5059900;28;20370;-82
2022/12/29 06:56:13;;;;;;;1.65;1.00;;;;;;;;;;5078488;28;20764;-80
2022/12/29 06:58:39;;;;;;;1.83;1.10;;;;;;;;;;5077856;28;20513;-80
2022/12/29 07:01:04;;;;;;;1.27;1.00;;;;;;;;;;5060576;28;20024;-80
2022/12/29 07:03:30;;;;;;;3.28;1.17;;;;;;;;;;5060282;28;20028;-81
2022/12/29 07:05:55;;;;;;;1.10;1.00;;;;;;;;;;5077118;28;20047;-80
2022/12/29 07:08:20;;;;;;;1.67;1.10;;;;;;;;;;5059481;28;20029;-80
2022/12/29 07:10:46;;;;;;;2.05;1.33;;;;;;;;;;5078454;28;20032;-79
2022/12/29 07:13:11;;;;;;;2.35;1.30;;;;;;;;;;5077033;28;20419;-78
2022/12/29 07:15:37;;;;;;;2.00;1.30;;;;;;;;;;5077036;28;20073;-79
2022/12/29 07:18:03;;;;;;;5.68;1.50;;;;;;;;;;5077299;28;20261;-79
2022/12/29 07:20:29;;;;;;;2.85;1.17;;;;;;;;;;5059025;28;20024;-80
2022/12/29 07:22:54;;;;;;;2.35;1.00;;;;;;;;;;5076779;28;20182;-79
2022/12/29 07:25:19;;;;;;;2.13;1.13;;;;;;;;;;5060439;28;20029;-81
2022/12/29 07:27:44;;;;;;;2.10;1.13;;;;;;;;;;5077869;28;20517;-80
2022/12/29 07:30:10;;;;;;;1.45;1.15;;;;;;;;;;5076643;28;20820;-80
2022/12/29 07:32:35;;;;;;;1.48;1.13;;;;;;;;;;5076193;28;20024;-81
2022/12/29 07:35:01;;;;;;;2.17;1.10;;;;;;;;;;5058864;28;20013;-80
2022/12/29 07:37:26;;;;;;;2.38;1.50;;;;;;;;;;5076382;28;20090;-82
2022/12/29 07:39:51;;;;;;;2.63;1.50;;;;;;;;;;5076103;28;20028;-82
2022/12/29 07:42:17;;;;;;;4.03;1.37;;;;;;;;;;5058198;28;20268;-81
2022/12/29 07:44:42;;;;;;;2.17;1.30;;;;;;;;;;5076899;28;20285;-81
2022/12/29 07:47:07;;;;;;;3.22;1.33;;;;;;;;;;5078359;28;20259;-82
2022/12/29 07:49:32;;;;;;;2.15;1.50;;;;;;;;;;5078187;28;20386;-80
2022/12/29 07:51:58;;;;;;;1.97;1.30;;;;;;;;;;5077787;28;20034;-80
2022/12/29 07:54:23;;;;;;;2.70;1.52;;;;;;;;;;5077880;28;20347;-81
2022/12/29 07:56:48;;;;;;;2.45;1.40;;;;;;;;;;5059981;28;20111;-81
2022/12/29 07:59:13;;;;;;;3.60;1.35;;;;;;;;;;5077634;28;20492;-80
2022/12/29 08:01:39;;;;;;;2.33;1.33;;;;;;;;;;5077598;28;20050;-80
2022/12/29 08:04:04;;;;;;;3.80;1.55;;;;;;;;;;5077702;28;20033;-81
2022/12/29 08:06:30;;;;;;;2.28;1.30;;;;;;;;;;5077742;28;20103;-79
2022/12/29 08:08:56;;;;;;;2.60;1.50;;;;;;;;;;5059432;28;20021;-82
2022/12/29 08:11:21;;;;;;;3.20;1.75;;;;;;;;;;5077963;28;20024;-80
2022/12/29 08:13:47;;;;;;;2.20;1.40;;;;;;;;;;5077865;28;20028;-82
2022/12/29 08:16:12;;;;;;;5.40;1.40;;;;;;;;;;5079421;28;20029;-81
2022/12/29 08:18:37;;;;;;;4.20;1.30;;;;;;;;;;5081942;28;20474;-81
2022/12/29 08:21:03;;;;;;;3.17;1.58;;;;;;;;;;5082422;28;20103;-81
2022/12/29 08:23:28;;;;;;;3.08;1.30;;;;;;;;;;5081837;28;20054;-81
2022/12/29 08:26:02;;;;;;;2.70;1.50;;;;;;;;;;5082228;28;20029;-81
2022/12/29 08:28:27;;;;;;;2.95;1.70;;;;;;;;;;5082084;28;20241;-81
2022/12/29 08:30:53;;;;;;;4.25;2.17;;;;;;;;;;5081265;28;20470;-80
2022/12/29 08:33:18;;;;;;;2.67;1.70;;;;;;;;;;5081753;28;20440;-79
2022/12/29 08:35:44;;;;;;;2.83;1.65;;;;;;;;;;5081958;28;20041;-83
2022/12/29 08:38:11;;;;;;;3.03;1.60;;;;;;;;;;5063620;28;20022;-80
2022/12/29 08:40:36;;;;;;;4.13;1.92;;;;;;;;;;5063664;28;20120;-82
2022/12/29 08:43:01;;;;;;;3.13;1.77;;;;;;;;;;5080233;28;20036;-79
2022/12/29 08:45:27;;;;;;;2.63;1.70;;;;;;;;;;5080369;28;20032;-81
2022/12/29 08:47:52;;;;;;;5.93;1.35;;;;;;;;;;5062453;28;20260;-81
2022/12/29 08:50:17;;;;;;;3.23;1.60;;;;;;;;;;5080908;28;20027;-81
2022/12/29 08:52:42;;;;;;;4.82;2.00;;;;;;;;;;5062663;28;20299;-80
2022/12/29 08:55:08;;;;;;;3.47;1.60;;;;;;;;;;5080618;28;20024;-80
2022/12/29 08:57:33;;;;;;;4.88;1.65;;;;;;;;;;5062309;28;20260;-81
2022/12/29 08:59:58;;;;;;;3.33;1.48;;;;;;;;;;5080172;28;20025;-80
2022/12/29 09:02:24;;;;;;;4.05;1.52;;;;;;;;;;5079903;28;20127;-80
2022/12/29 09:04:49;;;;;;;2.63;1.53;;;;;;;;;;5061563;28;20441;-80
2022/12/29 09:07:14;;;;;;;2.80;1.40;;;;;;;;;;5079651;28;20618;-81
2022/12/29 09:09:39;;;;;;;3.03;1.50;;;;;;;;;;5079521;28;20622;-81
2022/12/29 09:12:05;;;;;;;2.45;1.30;;;;;;;;;;5062528;28;20021;-81
2022/12/29 09:14:30;;;;;;;2.95;1.55;;;;;;;;;;5062438;28;20464;-80
2022/12/29 09:19:39;;;;;;;2.15;1.10;;;;;;;;;;5079210;28;20307;-80
2022/12/29 09:22:04;;;;;;;2.42;0.88;;;;;;;;;;5060647;28;20032;-81
2022/12/29 09:24:30;;;;;;;2.75;0.65;;;;;;;;;;5079945;28;20044;-80
2022/12/29 09:26:56;;;;;;;3.30;1.45;;;;;;;;;;5080241;28;20027;-80
2022/12/29 09:29:21;;;;;;;5.93;1.77;;;;;;;;;;5080363;28;20021;-82
2022/12/29 09:31:46;;;;;;;2.60;1.63;;;;;;;;;;5081659;28;20035;-81
2022/12/29 09:34:12;;;;;;;3.78;1.77;;;;;;;;;;5081341;28;20059;-80
2022/12/29 09:36:37;;;;;;;3.75;1.70;;;;;;;;;;5063400;28;20024;-81
2022/12/29 09:39:02;;;;;;;3.00;1.73;;;;;;;;;;5081311;28;20025;-80
2022/12/29 09:41:39;;;;;;;4.70;2.33;;;;;;;;;;5080761;28;20031;-81
2022/12/29 09:44:26;;;;;;;2.03;1.20;;;;;;;;;;5080817;28;20023;-81
2022/12/29 09:46:54;;;;;;;2.65;1.45;;;;;;;;;;5081488;28;20051;-80
2022/12/29 09:49:23;;;;;;;3.45;1.63;;;;;;;;;;5081089;28;20024;-82
2022/12/29 09:51:52;;;;;;;3.28;1.13;;;;;;;;;;5081540;28;20025;-80
2022/12/29 09:54:50;;;;;;;1.95;0.82;;;;;;;;;;5062667;28;20039;-82
2022/12/29 09:57:22;;;;;;;2.30;1.00;;;;;;;;;;5080640;28;20028;-80
2022/12/29 09:59:52;;;;;;;2.30;1.20;;;;;;;;;;5080085;28;20024;-81
2022/12/29 10:02:52;;;;;;;1.63;0.88;;;;;;;;;;5080830;28;20024;-81
2022/12/29 10:06:05;;;;;;;2.22;1.08;;;;;;;;;;5051337;28;20086;-81
2022/12/29 10:08:54;;;;;;;1.85;0.80;;;;;;;;;;5057026;28;20029;-80
2022/12/29 10:11:33;;;;;;;3.45;0.80;;;;;;;;;;5079927;28;20021;-81
2022/12/29 10:14:22;;;;;;;1.75;1.00;;;;;;;;;;5062591;28;20031;-81
2022/12/29 10:16:57;;;;;;;6.00;0.90;;;;;;;;;;5080920;28;20412;-82
2022/12/29 10:19:29;;;;;;;2.35;0.80;;;;;;;;;;5081988;28;20032;-80
2022/12/29 10:22:13;;;;;;;1.33;0.80;;;;;;;;;;5062362;28;20035;-81
2022/12/29 10:24:38;;;;;;;;;;;;;;;;;;5080475;28;20508;-81
2022/12/29 10:27:09;;;;;;;0.80;0.63;;;;;;;;;;5080007;28;19908;-80
2022/12/29 10:29:39;;;;;;;1.17;0.80;;;;;;;;;;5062193;28;20020;-82
2022/12/29 10:32:12;;;;;;;2.33;0.70;;;;;;;;;;5061626;28;20069;-81
2022/12/29 10:34:41;;;;;;;0.70;0.63;;;;;;;;;;5062701;28;20036;-82
2022/12/29 10:37:32;;;;;;;1.00;0.55;;;;;;;;;;5062128;28;20288;-81
2022/12/29 10:39:58;;;;;;;1.10;0.90;;;;;;;;;;5078246;28;20558;-80
2022/12/29 10:42:32;;;;;;;5.15;0.80;;;;;;;;;;5079072;28;20078;-81
2022/12/29 10:44:59;;;;;;;1.20;0.80;;;;;;;;;;5079854;28;20032;-80
2022/12/29 10:47:29;;;;;;;3.10;0.88;;;;;;;;;;5079510;28;20130;-80
2022/12/29 10:49:55;;;;;;;1.15;0.70;;;;;;;;;;5061280;28;20440;-80
2022/12/29 10:52:22;;;;;;;2.90;0.80;;;;;;;;;;5079521;28;20024;-81
2022/12/29 10:54:53;;;;;;;0.73;0.70;;;;;;;;;;5079151;28;20370;-81
2022/12/29 10:57:32;;;;;;;1.67;0.82;;;;;;;;;;5078981;28;20028;-80
2022/12/29 10:59:58;;;;;;;0.73;0.65;;;;;;;;;;5061974;28;20020;-80
2022/12/29 11:02:44;;;;;;;2.70;0.88;;;;;;;;;;5079525;28;20035;-80
2022/12/29 11:05:33;;;;;;;1.42;0.70;;;;;;;;;;5079251;28;20378;-79
2022/12/29 11:08:02;;;;;;;2.05;0.70;;;;;;;;;;5079594;28;20052;-80
2022/12/29 11:10:38;;;;;;;0.88;0.63;;;;;;;;;;5079174;28;20033;-81
2022/12/29 11:13:11;;;;;;;1.13;0.80;;;;;;;;;;5079791;28;20074;-81
2022/12/29 11:15:48;;;;;;;0.97;0.70;;;;;;;;;;5080111;28;20082;-78
2022/12/29 11:18:22;;;;;;;2.97;0.80;;;;;;;;;;5078794;28;20055;-80
2022/12/29 11:20:50;;;;;;;3.88;0.73;;;;;;;;;;5079480;28;20021;-81
2022/12/29 11:23:29;;;;;;;3.50;0.80;;;;;;;;;;5061823;28;20024;-81
2022/12/29 11:26:10;;;;;;;1.45;0.90;;;;;;;;;;5078418;28;20073;-80
2022/12/29 11:28:41;;;;;;;0.82;0.60;;;;;;;;;;5078790;28;20048;-81
2022/12/29 11:31:08;;;;;;;1.75;0.70;;;;;;;;;;5078241;28;20028;-80
2022/12/29 11:33:35;;;;;;;6.15;0.70;;;;;;;;;;5078195;28;20024;-82
2022/12/29 11:36:13;;;;;;;5.05;0.80;;;;;;;;;;5060353;28;20085;-81
2022/12/29 11:38:41;;;;;;;0.80;0.70;;;;;;;;;;5059964;28;20028;-83
2022/12/29 11:41:11;;;;;;;1.85;0.90;;;;;;;;;;5078157;28;20020;-81
2022/12/29 11:43:39;;;;;;;1.65;0.88;;;;;;;;;;5078762;28;20025;-81
2022/12/29 11:46:05;;;;;;;1.45;0.80;;;;;;;;;;5077363;28;20105;-80
2022/12/29 11:48:39;;;;;;;1.95;0.85;;;;;;;;;;5060364;28;20028;-82
2022/12/29 11:51:05;;;;;;;;;;;;;;;;;;5061318;28;20025;-82
2022/12/29 11:53:41;;;;;;;2.05;1.13;;;;;;;;;;5079063;28;19935;-82
2022/12/29 11:56:15;;;;;;;1.20;0.90;;;;;;;;;;5079120;28;20035;-82
2022/12/29 11:58:41;;;;;;;0.90;0.82;;;;;;;;;;5061690;28;20082;-81
2022/12/29 12:01:15;;;;;;;1.77;0.82;;;;;;;;;;5079418;28;20033;-81
2022/12/29 12:03:47;;;;;;;1.45;0.90;;;;;;;;;;5079346;28;20082;-81
2022/12/29 12:06:18;;;;;;;1.98;0.95;;;;;;;;;;5061473;28;20028;-81
2022/12/29 12:08:51;;;;;;;4.82;0.80;;;;;;;;;;5060971;28;20123;-81
2022/12/29 12:11:41;;;;;;;1.73;0.98;;;;;;;;;;5079196;28;20034;-81
2022/12/29 12:14:17;;;;;;;1.73;0.98;;;;;;;;;;5078738;28;20025;-82
2022/12/29 12:16:58;;;;;;;2.75;1.05;;;;;;;;;;5079073;28;20031;-82
2022/12/29 12:19:32;;;;;;;1.00;0.80;;;;;;;;;;5061375;28;20397;-81
2022/12/29 12:22:03;;;;;;;;;;;;;;;;;;5079338;28;20021;-82
2022/12/29 12:24:34;;;;;;;3.38;0.90;;;;;;;;;;5079363;28;19909;-80
2022/12/29 12:27:09;;;;;;;2.05;0.88;;;;;;;;;;5061267;28;20389;-81
2022/12/29 12:29:52;;;;;;;1.58;1.00;;;;;;;;;;5079845;28;20024;-82
2022/12/29 12:32:22;;;;;;;1.13;0.75;;;;;;;;;;5079166;28;20024;-81
2022/12/29 12:34:49;;;;;;;1.73;0.60;;;;;;;;;;5061652;28;20024;-81
2022/12/29 12:37:40;;;;;;;2.83;0.98;;;;;;;;;;5061553;28;20024;-82
2022/12/29 12:40:33;;;;;;;2.50;0.90;;;;;;;;;;5056407;28;20040;-82
2022/12/29 12:43:23;;;;;;;2.05;0.88;;;;;;;;;;5079888;28;20557;-82
2022/12/29 12:46:01;;;;;;;2.10;0.88;;;;;;;;;;5079065;28;20040;-82
2022/12/29 12:48:54;;;;;;;1.63;0.82;;;;;;;;;;5079448;28;20470;-82
2022/12/29 12:51:22;;;;;;;1.67;0.90;;;;;;;;;;5060925;28;20024;-80
2022/12/29 12:53:52;;;;;;;1.08;0.93;;;;;;;;;;5060773;28;20569;-82
2022/12/29 12:56:43;;;;;;;2.95;0.90;;;;;;;;;;5061510;28;20016;-81
2022/12/29 12:59:24;;;;;;;2.83;1.15;;;;;;;;;;5060251;28;20017;-82
2022/12/29 13:02:10;;;;;;;2.97;1.23;;;;;;;;;;5078190;28;20029;-81
2022/12/29 13:04:48;;;;;;;6.03;1.20;;;;;;;;;;5063356;28;20025;-81
2022/12/29 13:07:33;;;;;;;3.75;1.30;;;;;;;;;;5082141;28;20020;-81
2022/12/29 13:10:17;;;;;;;3.20;1.13;;;;;;;;;;5081848;28;20078;-81
2022/12/29 13:13:16;;;;;;;2.47;1.00;;;;;;;;;;5081368;28;20516;-81
2022/12/29 13:15:56;;;;;;;1.92;0.77;;;;;;;;;;5081921;28;20048;-81
2022/12/29 13:18:29;;;;;;;2.13;0.95;;;;;;;;;;5081754;28;20021;-82
2022/12/29 13:21:06;;;;;;;1.00;0.80;;;;;;;;;;5081397;28;20025;-81
2022/12/29 13:23:56;;;;;;;2.45;0.98;;;;;;;;;;5063254;28;20029;-81
2022/12/29 13:26:47;;;;;;;2.00;1.00;;;;;;;;;;5063129;28;20048;-81
2022/12/29 13:29:21;;;;;;;2.60;1.20;;;;;;;;;;5063299;28;20032;-81
2022/12/29 13:31:56;;;;;;;3.20;1.00;;;;;;;;;;5081396;28;20377;-81
2022/12/29 13:34:35;;;;;;;1.40;0.80;;;;;;;;;;5080003;28;20081;-81
2022/12/29 13:37:11;;;;;;;3.35;0.95;;;;;;;;;;5080393;28;20020;-80
2022/12/29 13:39:49;;;;;;;1.80;0.90;;;;;;;;;;5080108;28;20032;-81
2022/12/29 13:42:18;;;;;;;3.05;0.80;;;;;;;;;;5080271;28;20028;-81
2022/12/29 13:44:48;;;;;;;1.85;1.02;;;;;;;;;;5078787;28;20021;-82
2022/12/29 13:47:29;;;;;;;3.30;1.00;;;;;;;;;;5079290;28;20117;-80
2022/12/29 13:50:00;;;;;;;2.08;0.73;;;;;;;;;;5079012;28;20101;-82
2022/12/29 13:52:34;;;;;;;4.35;1.00;;;;;;;;;;5079467;28;20086;-81
2022/12/29 13:55:34;;;;;;;1.70;0.90;;;;;;;;;;5062124;28;20070;-81
2022/12/29 13:58:37;;;;;;;2.88;1.05;;;;;;;;;;5061904;28;20500;-80
2022/12/29 14:01:21;;;;;;;3.58;1.08;;;;;;;;;;5061212;28;20551;-80
2022/12/29 14:03:52;;;;;;;2.58;0.90;;;;;;;;;;5080273;28;20106;-82
2022/12/29 14:06:31;;;;;;;1.52;1.10;;;;;;;;;;5081770;28;20032;-82
2022/12/29 14:09:03;;;;;;;1.38;0.90;;;;;;;;;;5062691;28;20021;-80
2022/12/29 14:11:37;;;;;;;1.52;1.00;;;;;;;;;;5062193;28;20428;-80
2022/12/29 14:14:22;;;;;;;3.45;0.80;;;;;;;;;;5079216;28;20050;-81
2022/12/29 14:16:48;;;;;;;2.03;0.98;;;;;;;;;;5080555;28;20021;-81
2022/12/29 14:19:29;;;;;;;1.77;0.93;;;;;;;;;;5080544;28;20034;-82
2022/12/29 14:22:03;;;;;;;1.45;0.80;;;;;;;;;;5080936;28;20024;-80
2022/12/29 14:24:38;;;;;;;;;;;;;;;;;;5080652;28;20031;-81
2022/12/29 14:27:10;;;;;;;2.85;1.10;;;;;;;;;;5080069;28;20010;-81
2022/12/29 14:29:37;;;;;;;1.90;1.13;;;;;;;;;;5080380;28;20028;-81
2022/12/29 14:32:23;;;;;;;1.35;0.90;;;;;;;;;;5079811;28;20085;-80
2022/12/29 14:34:48;;;;;;;2.15;1.08;;;;;;;;;;5079279;28;20024;-80
2022/12/29 14:37:40;;;;;;;1.38;1.00;;;;;;;;;;5080138;28;20385;-81
2022/12/29 14:40:19;;;;;;;3.35;1.30;;;;;;;;;;5059219;28;20047;-81
2022/12/29 14:42:46;;;;;;;1.33;1.00;;;;;;;;;;5079109;28;20029;-81
2022/12/29 14:45:14;;;;;;;2.25;1.00;;;;;;;;;;5079839;28;20071;-80
2022/12/29 14:47:44;;;;;;;1.83;0.90;;;;;;;;;;5080038;28;20064;-80
2022/12/29 14:50:16;;;;;;;4.05;1.00;;;;;;;;;;5079146;28;20051;-81
2022/12/29 14:53:03;;;;;;;1.55;1.00;;;;;;;;;;5078740;28;20024;-80
2022/12/29 14:55:38;;;;;;;1.85;1.13;;;;;;;;;;5078950;28;20412;-80
2022/12/29 14:58:05;;;;;;;2.15;0.90;;;;;;;;;;5078882;28;20024;-80
2022/12/29 15:00:34;;;;;;;3.03;0.82;;;;;;;;;;5061636;28;20052;-82
2022/12/29 15:03:31;;;;;;;3.22;1.20;;;;;;;;;;5079028;28;20036;-80
2022/12/29 15:06:09;;;;;;;1.60;0.90;;;;;;;;;;5077513;28;20153;-80
2022/12/29 15:08:43;;;;;;;3.08;1.00;;;;;;;;;;5078071;28;20044;-80
2022/12/29 15:11:14;;;;;;;6.07;1.20;;;;;;;;;;5060421;28;20029;-79
2022/12/29 15:13:45;;;;;;;1.40;0.88;;;;;;;;;;5060070;28;20029;-80
2022/12/29 15:16:35;;;;;;;3.30;1.10;;;;;;;;;;5060578;28;20017;-81
2022/12/29 15:19:01;;;;;;;2.65;0.93;;;;;;;;;;5060221;28;20025;-81
2022/12/29 15:21:34;;;;;;;1.13;1.00;;;;;;;;;;5059205;28;20029;-81
2022/12/29 15:24:00;;;;;;;1.60;0.80;;;;;;;;;;5059802;28;20039;-80
2022/12/29 15:26:43;;;;;;;2.17;1.00;;;;;;;;;;5076971;28;20405;-80
2022/12/29 15:29:29;;;;;;;1.73;1.10;;;;;;;;;;5078160;28;20029;-80
2022/12/29 15:32:00;;;;;;;2.13;1.17;;;;;;;;;;5059459;28;20071;-80
2022/12/29 15:34:29;;;;;;;2.47;1.45;;;;;;;;;;5077663;28;20512;-79
2022/12/29 15:36:56;;;;;;;1.50;1.15;;;;;;;;;;5060117;28;20027;-79
2022/12/29 15:39:29;;;;;;;7.25;1.40;;;;;;;;;;5077229;28;20049;-80
2022/12/29 15:42:16;;;;;;;1.27;1.00;;;;;;;;;;5077433;28;20032;-78
2022/12/29 15:44:43;;;;;;;1.85;1.20;;;;;;;;;;5078024;28;20261;-83
2022/12/29 15:47:16;;;;;;;1.35;1.02;;;;;;;;;;5076959;28;20020;-80
2022/12/29 15:49:43;;;;;;;1.42;0.88;;;;;;;;;;5059337;28;20117;-80